Time;durP1;ratioP1;P1;durP2;ratioP2;P2;SDS_P1;SDS_P2;PMS_P1;PMS_P2;Temp;Humidity;BMP_temperature;BMP_pressure;BME280_temperature;BME280_humidity;BME280_pressure;Samples;Min_cycle;Max_cycle;Signal;HPM_P1;HPM_P2
2021/04/02 00:01:43;;;;;;;;;;;9.90;87.10;;;;;;5088473;28;19912;-70
2021/04/02 00:04:09;;;;;;;;;;;9.80;87.40;;;;;;5091634;28;20330;-69
2021/04/02 00:06:34;;;;;;;;;;;9.70;87.70;;;;;;5084779;28;20442;-70
2021/04/02 00:09:00;;;;;;;;;;;9.70;88.00;;;;;;5088192;28;19916;-70
2021/04/02 00:11:26;;;;;;;;;;;9.60;88.30;;;;;;5091776;28;19991;-69
2021/04/02 00:13:52;;;;;;;;;;;9.50;88.50;;;;;;5062419;28;19966;-70
2021/04/02 00:16:19;;;;;;;;;;;9.40;88.90;;;;;;5066603;28;20228;-69
2021/04/02 00:18:45;;;;;;;;;;;9.40;89.30;;;;;;5094954;28;20327;-69
2021/04/02 00:21:11;;;;;;;;;;;9.30;89.40;;;;;;5080389;28;19924;-69
2021/04/02 00:23:37;;;;;;;;;;;9.30;89.70;;;;;;5071092;28;20313;-68
2021/04/02 00:26:06;;;;;;;;;;;9.20;90.20;;;;;;5085711;28;19916;-69
2021/04/02 00:28:33;;;;;;;;;;;9.30;90.10;;;;;;5092450;28;19926;-68
2021/04/02 00:30:59;;;;;;;;;;;9.20;90.40;;;;;;5080766;28;20363;-69
2021/04/02 00:33:26;;;;;;;;;;;9.10;90.80;;;;;;5084458;28;20201;-68
2021/04/02 00:35:52;;;;;;;;;;;9.10;90.90;;;;;;5080769;28;20003;-69
2021/04/02 00:38:17;;;;;;;;;;;9.10;91.10;;;;;;5077525;28;20049;-69
2021/04/02 00:40:44;;;;;;;;;;;9.10;91.30;;;;;;5081052;28;20082;-70
2021/04/02 00:43:11;;;;;;;;;;;9.10;91.30;;;;;;5083504;28;20342;-69
2021/04/02 00:45:37;;;;;;;;;;;9.00;91.40;;;;;;5079785;28;19924;-69
2021/04/02 00:48:03;;;;;;;;;;;9.10;91.60;;;;;;5089654;28;20293;-70
2021/04/02 00:50:32;;;;;;;;;;;9.10;91.50;;;;;;5080432;28;19986;-70
2021/04/02 00:52:57;;;;;;;;;;;9.00;91.50;;;;;;5077272;28;19928;-69
2021/04/02 00:55:23;;;;;;;;;;;8.90;91.80;;;;;;5076797;28;19913;-69
2021/04/02 00:57:49;;;;;;;;;;;8.80;92.00;;;;;;5093624;28;20003;-70
2021/04/02 01:00:15;;;;;;;;;;;8.80;92.20;;;;;;5062685;28;20216;-70
2021/04/02 01:02:40;;;;;;;;;;;8.70;92.40;;;;;;5089779;28;20359;-70
2021/04/02 01:05:08;;;;;;;;;;;8.70;92.60;;;;;;5081286;28;20274;-70
2021/04/02 01:07:34;;;;;;;;;;;8.70;92.80;;;;;;5091563;28;19922;-69
2021/04/02 01:09:59;;;;;;;;;;;8.60;93.00;;;;;;5084927;28;20003;-70
2021/04/02 01:12:25;;;;;;;;;;;8.50;93.30;;;;;;5077060;28;19912;-69
2021/04/02 01:14:50;;;;;;;;;;;8.30;93.30;;;;;;5082272;28;19912;-70
2021/04/02 01:17:19;;;;;;;;;;;8.20;93.80;;;;;;5092868;28;20269;-69
2021/04/02 01:19:47;;;;;;;;;;;8.20;94.10;;;;;;5089919;28;19920;-69
2021/04/02 01:22:16;;;;;;;;;;;8.20;94.10;;;;;;5091425;28;19954;-69
2021/04/02 01:24:51;;;;;;;;;;;8.20;94.20;;;;;;5080732;28;20003;-69
2021/04/02 01:27:35;;;;;;;;;;;8.10;94.40;;;;;;5094433;28;20249;-69
2021/04/02 01:30:06;;;;;;;;;;;8.00;94.40;;;;;;5082392;28;19956;-69
2021/04/02 01:32:35;;;;;;;;;;;7.90;94.50;;;;;;5082263;28;19942;-70
2021/04/02 01:35:10;;;;;;;;;;;7.70;94.60;;;;;;5094190;28;20220;-69
2021/04/02 01:37:38;;;;;;;;;;;7.60;94.90;;;;;;5073283;28;20285;-69
2021/04/02 01:40:05;;;;;;;;;;;7.60;95.00;;;;;;5081096;28;19920;-69
2021/04/02 01:42:34;;;;;;;;;;;7.60;95.20;;;;;;5085445;28;19954;-69
2021/04/02 01:45:00;;;;;;;;;;;7.60;95.40;;;;;;5079206;28;20332;-69
2021/04/02 01:47:26;;;;;;;;;;;7.60;95.50;;;;;;5080186;28;19913;-69
2021/04/02 01:49:52;;;;;;;;;;;7.50;95.40;;;;;;5084732;28;20352;-69
2021/04/02 01:52:20;;;;;;;;;;;7.50;95.40;;;;;;5079824;28;20340;-69
2021/04/02 01:54:46;;;;;;;;;;;7.50;95.50;;;;;;5085576;28;19916;-70
2021/04/02 01:57:13;;;;;;;;;;;7.50;95.60;;;;;;5076304;28;19913;-70
2021/04/02 01:59:39;;;;;;;;;;;7.40;95.70;;;;;;5061947;28;20283;-70
2021/04/02 02:02:06;;;;;;;;;;;7.40;95.70;;;;;;5090402;28;19999;-70
2021/04/02 02:04:33;;;;;;;;;;;7.30;95.70;;;;;;5094783;28;19938;-70
2021/04/02 02:06:59;;;;;;;;;;;7.30;95.70;;;;;;5082984;28;20006;-70
2021/04/02 02:09:32;;;;;;;;;;;7.30;95.80;;;;;;5085374;28;20289;-70
2021/04/02 02:11:59;;;;;;;;;;;7.30;95.80;;;;;;5083910;28;19991;-70
2021/04/02 02:14:26;;;;;;;;;;;7.30;96.10;;;;;;5079633;28;19912;-70
2021/04/02 02:16:53;;;;;;;;;;;7.10;96.00;;;;;;5081525;28;20003;-70
2021/04/02 02:19:23;;;;;;;;;;;6.90;95.90;;;;;;5077774;28;20330;-69
2021/04/02 02:21:49;;;;;;;;;;;6.80;96.00;;;;;;5082774;28;19913;-70
2021/04/02 02:24:15;;;;;;;;;;;6.80;95.90;;;;;;5063363;28;19919;-70
2021/04/02 02:26:44;;;;;;;;;;;6.80;96.00;;;;;;5080184;28;19916;-70
2021/04/02 02:29:10;;;;;;;;;;;6.80;96.20;;;;;;5087812;28;19923;-69
2021/04/02 02:31:36;;;;;;;;;;;6.80;96.20;;;;;;5063961;28;19912;-70
2021/04/02 02:34:03;;;;;;;;;;;6.80;96.00;;;;;;5075845;28;20289;-71
2021/04/02 02:36:29;;;;;;;;;;;6.80;96.10;;;;;;5086347;28;19912;-70
2021/04/02 02:38:54;;;;;;;;;;;6.80;96.20;;;;;;5080329;28;19919;-69
2021/04/02 02:41:20;;;;;;;;;;;6.80;96.40;;;;;;5090751;28;19919;-70
2021/04/02 02:43:47;;;;;;;;;;;6.70;96.40;;;;;;5087912;28;20041;-70
2021/04/02 02:46:12;;;;;;;;;;;6.60;96.30;;;;;;5080937;28;20012;-69
2021/04/02 02:48:38;;;;;;;;;;;6.50;96.10;;;;;;5087961;28;20014;-69
2021/04/02 02:51:04;;;;;;;;;;;6.50;96.10;;;;;;5085389;28;19966;-69
2021/04/02 02:53:30;;;;;;;;;;;6.50;96.20;;;;;;5087992;28;19931;-70
2021/04/02 02:55:56;;;;;;;;;;;6.50;96.20;;;;;;5060994;28;19912;-69
2021/04/02 02:58:24;;;;;;;;;;;6.60;96.30;;;;;;5087688;28;20215;-69
2021/04/02 03:00:50;;;;;;;;;;;6.50;96.40;;;;;;5083278;28;20022;-70
2021/04/02 03:03:17;;;;;;;;;;;6.40;96.20;;;;;;5072752;28;19912;-70
2021/04/02 03:05:45;;;;;;;;;;;6.50;96.30;;;;;;5090327;28;19931;-70
2021/04/02 03:08:13;;;;;;;;;;;6.60;96.50;;;;;;5075868;28;20324;-70
2021/04/02 03:10:39;;;;;;;;;;;6.60;96.40;;;;;;5075607;28;19912;-70
2021/04/02 03:13:05;;;;;;;;;;;6.60;96.50;;;;;;5083393;28;19912;-70
2021/04/02 03:15:31;;;;;;;;;;;6.50;96.40;;;;;;5087883;28;19923;-70
2021/04/02 03:18:00;;;;;;;;;;;6.40;96.50;;;;;;5090367;28;19913;-69
2021/04/02 03:20:26;;;;;;;;;;;6.30;96.50;;;;;;5091668;28;20285;-69
2021/04/02 03:22:53;;;;;;;;;;;6.30;96.40;;;;;;5076136;28;19951;-69
2021/04/02 03:25:19;;;;;;;;;;;6.40;96.60;;;;;;5095072;28;20010;-69
2021/04/02 03:27:48;;;;;;;;;;;6.30;96.60;;;;;;5096560;28;20205;-70
2021/04/02 03:30:15;;;;;;;;;;;6.20;96.50;;;;;;5081749;28;20221;-70
2021/04/02 03:32:45;;;;;;;;;;;6.20;96.40;;;;;;5084515;28;19921;-70
2021/04/02 03:35:12;;;;;;;;;;;6.30;96.70;;;;;;5093863;28;20018;-70
2021/04/02 03:37:39;;;;;;;;;;;6.30;96.50;;;;;;5083021;28;19918;-70
2021/04/02 03:40:06;;;;;;;;;;;6.30;96.70;;;;;;5080981;28;19916;-69
2021/04/02 03:42:33;;;;;;;;;;;6.20;96.70;;;;;;5094924;28;20216;-70
2021/04/02 03:44:59;;;;;;;;;;;6.20;96.60;;;;;;5093105;28;19934;-70
2021/04/02 03:47:26;;;;;;;;;;;6.10;96.50;;;;;;5089647;28;19917;-70
2021/04/02 03:49:53;;;;;;;;;;;6.00;96.60;;;;;;5079555;28;19965;-69
2021/04/02 03:52:24;;;;;;;;;;;5.90;96.70;;;;;;5082270;28;20018;-69
2021/04/02 03:54:51;;;;;;;;;;;5.70;96.60;;;;;;5080248;28;19991;-70
2021/04/02 03:57:18;;;;;;;;;;;5.70;96.70;;;;;;5092169;28;19916;-69
2021/04/02 03:59:44;;;;;;;;;;;5.70;96.60;;;;;;5084415;28;19924;-70
2021/04/02 04:02:12;;;;;;;;;;;5.60;96.40;;;;;;5081441;28;20298;-70
2021/04/02 04:04:39;;;;;;;;;;;5.60;96.80;;;;;;5088738;28;19920;-69
2021/04/02 04:07:06;;;;;;;;;;;5.50;96.80;;;;;;5078948;28;19914;-70
2021/04/02 04:09:32;;;;;;;;;;;5.40;96.80;;;;;;5077656;28;19917;-70
2021/04/02 04:11:59;;;;;;;;;;;5.40;96.70;;;;;;5084988;28;19959;-69
2021/04/02 04:14:25;;;;;;;;;;;5.40;96.90;;;;;;5085612;28;19957;-70
2021/04/02 04:16:53;;;;;;;;;;;5.30;96.80;;;;;;5088656;28;19927;-70
2021/04/02 04:19:19;;;;;;;;;;;5.20;96.90;;;;;;5086515;28;19924;-70
2021/04/02 04:21:46;;;;;;;;;;;5.20;96.70;;;;;;5086740;28;19916;-70
2021/04/02 04:24:13;;;;;;;;;;;5.20;96.90;;;;;;5090492;28;19912;-70
2021/04/02 04:26:38;;;;;;;;;;;5.10;96.90;;;;;;5075092;28;19912;-69
2021/04/02 04:29:06;;;;;;;;;;;5.10;96.80;;;;;;5082037;28;19912;-69
2021/04/02 04:31:32;;;;;;;;;;;5.00;97.00;;;;;;5079585;28;19967;-69
2021/04/02 04:33:59;;;;;;;;;;;5.00;96.90;;;;;;5091075;28;20250;-69
2021/04/02 04:36:25;;;;;;;;;;;5.10;96.90;;;;;;5082604;28;20576;-69
2021/04/02 04:38:52;;;;;;;;;;;5.10;96.90;;;;;;5084323;28;19920;-69
2021/04/02 04:41:18;;;;;;;;;;;5.10;97.10;;;;;;5092757;28;19916;-69
2021/04/02 04:43:44;;;;;;;;;;;5.00;97.10;;;;;;5080383;28;19995;-68
2021/04/02 04:46:13;;;;;;;;;;;4.90;97.10;;;;;;5085464;28;19920;-68
2021/04/02 04:48:39;;;;;;;;;;;4.90;96.80;;;;;;5084293;28;19916;-69
2021/04/02 04:51:05;;;;;;;;;;;4.90;97.20;;;;;;5096526;28;19912;-71
2021/04/02 04:53:32;;;;;;;;;;;4.80;96.90;;;;;;5078491;28;19920;-71
2021/04/02 04:55:59;;;;;;;;;;;4.70;97.00;;;;;;5093837;28;20001;-71
2021/04/02 04:58:27;;;;;;;;;;;4.70;97.10;;;;;;5087337;28;20362;-70
2021/04/02 05:00:54;;;;;;;;;;;4.70;97.00;;;;;;5068575;28;19921;-69
2021/04/02 05:03:21;;;;;;;;;;;4.70;97.10;;;;;;5090030;28;20335;-69
2021/04/02 05:05:48;;;;;;;;;;;4.70;97.10;;;;;;5086801;28;19916;-72
2021/04/02 05:08:17;;;;;;;;;;;4.70;97.20;;;;;;5070207;28;19923;-70
2021/04/02 05:10:44;;;;;;;;;;;4.70;97.30;;;;;;5087680;28;19967;-68
2021/04/02 05:13:10;;;;;;;;;;;4.60;97.20;;;;;;5088996;28;19912;-70
2021/04/02 05:15:36;;;;;;;;;;;4.60;97.30;;;;;;5093988;28;19913;-69
2021/04/02 05:18:02;;;;;;;;;;;4.60;97.20;;;;;;5080736;28;19923;-70
2021/04/02 05:20:39;;;;;;;;;;;4.50;97.20;;;;;;5081401;28;19916;-70
2021/04/02 05:23:04;;;;;;;;;;;4.50;97.00;;;;;;5091638;28;19954;-69
2021/04/02 05:25:30;;;;;;;;;;;4.60;97.30;;;;;;5090055;28;20324;-69
2021/04/02 05:27:55;;;;;;;;;;;4.60;97.30;;;;;;5108931;28;20320;-70
2021/04/02 05:30:21;;;;;;;;;;;4.60;97.20;;;;;;5091601;28;19999;-67
2021/04/02 05:32:46;;;;;;;;;;;4.60;97.10;;;;;;5084659;28;19940;-70
2021/04/02 05:35:12;;;;;;;;;;;4.70;97.40;;;;;;5081378;28;19919;-69
2021/04/02 05:37:38;;;;;;;;;;;4.70;97.50;;;;;;5075051;28;19920;-70
2021/04/02 05:40:04;;;;;;;;;;;4.70;97.10;;;;;;5081890;28;19917;-69
2021/04/02 05:42:31;;;;;;;;;;;4.80;97.30;;;;;;5086884;28;19912;-70
2021/04/02 05:44:58;;;;;;;;;;;4.90;97.30;;;;;;5077600;28;20451;-69
2021/04/02 05:47:25;;;;;;;;;;;5.10;97.80;;;;;;5076884;28;19966;-69
2021/04/02 05:49:52;;;;;;;;;;;5.10;97.50;;;;;;5086774;28;19919;-69
2021/04/02 05:52:18;;;;;;;;;;;5.20;97.60;;;;;;5084196;28;19924;-69
2021/04/02 05:54:45;;;;;;;;;;;5.20;97.30;;;;;;5091315;28;19916;-70
2021/04/02 05:57:11;;;;;;;;;;;5.30;97.50;;;;;;5075713;28;20328;-70
2021/04/02 05:59:37;;;;;;;;;;;5.40;97.40;;;;;;5086059;28;19921;-70
2021/04/02 06:02:03;;;;;;;;;;;5.50;97.50;;;;;;5075820;28;19943;-70
2021/04/02 06:04:30;;;;;;;;;;;5.60;97.30;;;;;;5090598;28;19912;-70
2021/04/02 06:06:56;;;;;;;;;;;5.70;97.60;;;;;;5074894;28;19946;-71
2021/04/02 06:09:21;;;;;;;;;;;5.80;97.60;;;;;;5085964;28;19974;-69
2021/04/02 06:11:47;;;;;;;;;;;5.90;97.70;;;;;;5092420;28;19912;-71
2021/04/02 06:14:12;;;;;;;;;;;6.00;97.60;;;;;;5091786;28;19913;-70
2021/04/02 06:16:38;;;;;;;;;;;6.20;97.40;;;;;;5076944;28;19913;-69
2021/04/02 06:19:04;;;;;;;;;;;6.30;97.60;;;;;;5088361;28;20324;-71
2021/04/02 06:21:30;;;;;;;;;;;6.40;97.70;;;;;;5087096;28;19920;-70
2021/04/02 06:23:55;;;;;;;;;;;6.50;97.50;;;;;;5070806;28;19935;-70
2021/04/02 06:26:21;;;;;;;;;;;6.60;97.50;;;;;;5082633;28;19912;-71
2021/04/02 06:28:46;;;;;;;;;;;6.60;97.20;;;;;;5080914;28;20332;-70
2021/04/02 06:31:13;;;;;;;;;;;6.70;97.10;;;;;;5081884;28;19916;-70
2021/04/02 06:33:40;;;;;;;;;;;6.70;96.50;;;;;;5080244;28;19927;-71
2021/04/02 06:36:23;;;;;;;;;;;6.80;96.00;;;;;;5090480;28;19923;-70
2021/04/02 06:38:50;;;;;;;;;;;6.90;95.50;;;;;;5086154;28;19912;-70
2021/04/02 06:41:16;;;;;;;;;;;6.90;95.10;;;;;;5086858;28;20025;-70
2021/04/02 06:43:45;;;;;;;;;;;7.00;95.00;;;;;;5086554;28;19920;-69
2021/04/02 06:46:12;;;;;;;;;;;7.10;94.20;;;;;;5092800;28;19912;-70
2021/04/02 06:48:38;;;;;;;;;;;7.30;93.80;;;;;;5067687;28;19912;-71
2021/04/02 06:51:10;;;;;;;;;;;7.40;93.30;;;;;;5065523;28;19919;-70
2021/04/02 06:53:37;;;;;;;;;;;7.40;92.30;;;;;;5091641;28;19916;-71
2021/04/02 06:56:04;;;;;;;;;;;7.50;91.80;;;;;;5084649;28;20279;-70
2021/04/02 06:58:30;;;;;;;;;;;7.60;91.50;;;;;;5090918;28;19922;-71
2021/04/02 07:00:59;;;;;;;;;;;7.70;90.90;;;;;;5082489;28;20269;-69
2021/04/02 07:03:26;;;;;;;;;;;7.80;90.80;;;;;;5093446;28;19965;-70
2021/04/02 07:05:51;;;;;;;;;;;7.90;90.40;;;;;;5070632;28;20343;-69
2021/04/02 07:08:19;;;;;;;;;;;7.90;89.70;;;;;;5090111;28;19912;-70
2021/04/02 07:10:45;;;;;;;;;;;7.80;90.20;;;;;;5062345;28;19916;-70
2021/04/02 07:13:13;;;;;;;;;;;7.80;90.00;;;;;;5086852;28;21309;-69
2021/04/02 07:15:39;;;;;;;;;;;7.90;90.20;;;;;;5090259;28;19920;-70
2021/04/02 07:18:06;;;;;;;;;;;8.00;90.20;;;;;;5082004;28;19912;-70
2021/04/02 07:20:32;;;;;;;;;;;8.10;89.40;;;;;;5084633;28;19969;-69
2021/04/02 07:22:59;;;;;;;;;;;8.20;89.00;;;;;;5090467;28;19916;-70
2021/04/02 07:25:25;;;;;;;;;;;8.40;88.50;;;;;;5080725;28;19920;-69
2021/04/02 07:27:51;;;;;;;;;;;8.40;88.70;;;;;;5083450;28;19916;-70
2021/04/02 07:30:17;;;;;;;;;;;8.50;87.20;;;;;;5072174;28;21576;-70
2021/04/02 07:32:43;;;;;;;;;;;8.50;88.00;;;;;;5079851;28;19916;-69
2021/04/02 07:35:19;;;;;;;;;;;8.60;87.40;;;;;;5064644;28;19919;-69
2021/04/02 07:37:52;;;;;;;;;;;8.70;87.00;;;;;;5060981;28;19919;-69
2021/04/02 07:40:20;;;;;;;;;;;9.00;86.00;;;;;;5087378;28;19923;-69
2021/04/02 07:42:51;;;;;;;;;;;9.20;85.90;;;;;;5094607;28;19921;-69
2021/04/02 07:45:18;;;;;;;;;;;9.40;84.40;;;;;;5087576;28;19920;-70
2021/04/02 07:47:49;;;;;;;;;;;9.50;84.30;;;;;;5083160;28;20216;-71
2021/04/02 07:50:14;;;;;;;;;;;9.60;83.70;;;;;;5078209;28;19923;-71
2021/04/02 07:52:40;;;;;;;;;;;9.90;83.90;;;;;;5084388;28;20245;-69
2021/04/02 07:55:15;;;;;;;;;;;10.20;82.40;;;;;;5092675;28;20003;-70
2021/04/02 07:57:48;;;;;;;;;;;10.40;82.30;;;;;;5085905;28;20281;-71
2021/04/02 08:00:14;;;;;;;;;;;10.70;81.60;;;;;;5093669;28;19920;-70
2021/04/02 08:02:39;;;;;;;;;;;10.70;81.20;;;;;;5095908;28;19916;-70
2021/04/02 08:05:13;;;;;;;;;;;10.60;81.90;;;;;;5089119;28;19912;-71
2021/04/02 08:07:42;;;;;;;;;;;10.80;82.20;;;;;;5093847;28;20012;-70
2021/04/02 08:10:08;;;;;;;;;;;11.00;81.50;;;;;;5085994;28;20297;-70
2021/04/02 08:12:34;;;;;;;;;;;10.60;81.90;;;;;;5060762;28;19928;-70
2021/04/02 08:15:05;;;;;;;;;;;10.60;83.00;;;;;;5078775;28;19916;-70
2021/04/02 08:17:30;;;;;;;;;;;10.90;83.00;;;;;;5079067;28;19922;-70
2021/04/02 08:20:00;;;;;;;;;;;11.30;81.90;;;;;;5079914;28;21650;-70
2021/04/02 08:22:26;;;;;;;;;;;11.50;80.60;;;;;;5078135;28;19913;-70
2021/04/02 08:24:51;;;;;;;;;;;11.60;80.40;;;;;;5086647;28;19935;-70
2021/04/02 08:27:17;;;;;;;;;;;11.50;80.90;;;;;;5087706;28;20017;-70
2021/04/02 08:29:44;;;;;;;;;;;11.90;79.90;;;;;;5067553;28;20434;-70
2021/04/02 08:32:10;;;;;;;;;;;12.00;79.10;;;;;;5063439;28;19955;-70
2021/04/02 08:34:37;;;;;;;;;;;12.20;78.60;;;;;;5077253;28;19967;-70
2021/04/02 08:37:04;;;;;;;;;;;12.30;78.10;;;;;;5080888;28;19969;-70
2021/04/02 08:39:30;;;;;;;;;;;12.10;78.60;;;;;;5079949;28;20061;-70
2021/04/02 08:41:56;;;;;;;;;;;12.50;77.80;;;;;;5083249;28;20328;-70
2021/04/02 08:44:38;;;;;;;;;;;12.70;77.40;;;;;;5078259;28;19919;-70
2021/04/02 08:47:05;;;;;;;;;;;12.60;76.60;;;;;;5080238;28;19943;-70
2021/04/02 08:49:37;;;;;;;;;;;12.60;76.90;;;;;;5092185;28;19913;-70
2021/04/02 08:52:09;;;;;;;;;;;12.80;77.40;;;;;;5086924;28;19924;-70
2021/04/02 08:54:35;;;;;;;;;;;12.70;76.40;;;;;;5077927;28;19951;-70
2021/04/02 08:57:00;;;;;;;;;;;12.60;77.60;;;;;;5081535;28;19952;-70
2021/04/02 08:59:29;;;;;;;;;;;12.70;75.90;;;;;;5077823;28;19919;-70
2021/04/02 09:01:54;;;;;;;;;;;12.90;75.10;;;;;;5078103;28;19923;-69
2021/04/02 09:04:20;;;;;;;;;;;12.80;75.50;;;;;;5084951;28;19917;-70
2021/04/02 09:06:46;;;;;;;;;;;12.70;75.10;;;;;;5073945;28;19916;-69
2021/04/02 09:09:16;;;;;;;;;;;12.40;76.20;;;;;;5092313;28;19919;-69
2021/04/02 09:11:42;;;;;;;;;;;12.50;76.70;;;;;;5078999;28;19916;-69
2021/04/02 09:14:09;;;;;;;;;;;12.70;75.50;;;;;;5080188;28;19913;-69
2021/04/02 09:16:38;;;;;;;;;;;12.70;76.40;;;;;;5078626;28;19920;-70
2021/04/02 09:19:05;;;;;;;;;;;12.80;75.50;;;;;;5078577;28;20305;-70
2021/04/02 09:21:31;;;;;;;;;;;12.70;75.30;;;;;;5079748;28;19916;-70
2021/04/02 09:23:56;;;;;;;;;;;12.60;76.40;;;;;;5077167;28;19921;-70
2021/04/02 09:26:22;;;;;;;;;;;12.30;76.20;;;;;;5072829;28;19912;-70
2021/04/02 09:28:48;;;;;;;;;;;12.20;77.30;;;;;;5084023;28;19935;-69
2021/04/02 09:31:25;;;;;;;;;;;12.30;76.90;;;;;;5092650;28;19916;-70
2021/04/02 09:33:52;;;;;;;;;;;12.20;76.40;;;;;;5067835;28;20625;-70
2021/04/02 09:36:18;;;;;;;;;;;12.10;77.20;;;;;;5081551;28;19919;-69
2021/04/02 09:38:48;;;;;;;;;;;12.40;76.70;;;;;;5093408;28;19927;-70
2021/04/02 09:41:14;;;;;;;;;;;12.40;76.30;;;;;;5081003;28;19916;-70
2021/04/02 09:43:44;;;;;;;;;;;12.30;76.30;;;;;;5086013;28;20333;-69
2021/04/02 09:46:33;;;;;;;;;;;12.30;76.30;;;;;;5099485;28;19963;-69
2021/04/02 09:49:07;;;;;;;;;;;12.60;76.20;;;;;;5057152;28;20019;-70
2021/04/02 09:51:33;;;;;;;;;;;14.10;73.40;;;;;;5076356;28;19916;-69
2021/04/02 09:54:00;;;;;;;;;;;15.50;69.40;;;;;;5081979;28;19955;-70
2021/04/02 09:56:26;;;;;;;;;;;16.20;66.60;;;;;;5088855;28;19957;-70
2021/04/02 09:58:52;;;;;;;;;;;16.50;66.30;;;;;;5084038;28;19916;-69
2021/04/02 10:01:18;;;;;;;;;;;17.30;65.10;;;;;;5085747;28;19928;-70
2021/04/02 10:03:43;;;;;;;;;;;17.00;63.40;;;;;;5088519;28;19923;-69
2021/04/02 10:06:09;;;;;;;;;;;16.30;63.80;;;;;;5090023;28;19920;-69
2021/04/02 10:08:34;;;;;;;;;;;15.90;64.20;;;;;;5082169;28;19961;-69
2021/04/02 10:11:03;;;;;;;;;;;15.90;64.80;;;;;;5086960;28;19977;-69
2021/04/02 10:13:28;;;;;;;;;;;15.90;64.90;;;;;;5078127;28;19913;-70
2021/04/02 10:15:54;;;;;;;;;;;16.10;65.60;;;;;;5079866;28;20236;-69
2021/04/02 10:18:20;;;;;;;;;;;16.30;63.80;;;;;;5086043;28;20372;-69
2021/04/02 10:20:46;;;;;;;;;;;16.60;62.70;;;;;;5084015;28;19959;-69
2021/04/02 10:23:11;;;;;;;;;;;16.80;61.80;;;;;;5080580;28;19951;-69
2021/04/02 10:25:37;;;;;;;;;;;16.50;62.20;;;;;;5079437;28;20331;-69
2021/04/02 10:28:03;;;;;;;;;;;16.60;61.90;;;;;;5080209;28;20003;-69
2021/04/02 10:30:28;;;;;;;;;;;17.10;62.30;;;;;;5076409;28;19913;-69
2021/04/02 10:32:54;;;;;;;;;;;17.20;61.80;;;;;;5085402;28;19920;-69
2021/04/02 10:35:21;;;;;;;;;;;17.60;60.90;;;;;;5084878;28;20313;-69
2021/04/02 10:37:46;;;;;;;;;;;17.60;59.90;;;;;;5079972;28;19948;-69
2021/04/02 10:40:13;;;;;;;;;;;17.50;61.10;;;;;;5087963;28;19960;-71
2021/04/02 10:42:38;;;;;;;;;;;17.40;61.70;;;;;;5080508;28;20022;-70
2021/04/02 10:45:04;;;;;;;;;;;17.90;60.00;;;;;;5089753;28;20360;-70
2021/04/02 10:47:30;;;;;;;;;;;17.40;60.70;;;;;;5092389;28;20011;-70
2021/04/02 10:49:55;;;;;;;;;;;17.00;61.10;;;;;;5086388;28;20003;-70
2021/04/02 10:52:21;;;;;;;;;;;16.90;62.60;;;;;;5084473;28;19954;-70
2021/04/02 10:54:47;;;;;;;;;;;17.20;61.60;;;;;;5092572;28;20247;-69
2021/04/02 10:57:14;;;;;;;;;;;17.30;60.80;;;;;;5092387;28;19965;-70
2021/04/02 10:59:39;;;;;;;;;;;17.10;61.20;;;;;;5090726;28;19935;-69
2021/04/02 11:02:05;;;;;;;;;;;16.80;61.60;;;;;;5070201;28;19920;-70
2021/04/02 11:04:31;;;;;;;;;;;16.70;62.70;;;;;;5068112;28;19919;-69
2021/04/02 11:06:56;;;;;;;;;;;17.00;62.70;;;;;;5088041;28;19920;-70
2021/04/02 11:09:22;;;;;;;;;;;17.40;61.60;;;;;;5078254;28;20209;-69
2021/04/02 11:11:47;;;;;;;;;;;18.10;60.00;;;;;;5086404;28;20217;-69
2021/04/02 11:14:13;;;;;;;;;;;17.50;59.00;;;;;;5093317;28;20260;-69
2021/04/02 11:16:38;;;;;;;;;;;17.10;60.80;;;;;;5088983;28;20262;-69
2021/04/02 11:19:04;;;;;;;;;;;17.10;60.10;;;;;;5090777;28;19964;-69
2021/04/02 11:21:29;;;;;;;;;;;16.20;61.20;;;;;;5084824;28;19916;-69
2021/04/02 11:23:55;;;;;;;;;;;15.70;64.20;;;;;;5090410;28;20221;-68
2021/04/02 11:26:21;;;;;;;;;;;16.30;64.90;;;;;;5087291;28;20293;-70
2021/04/02 11:28:47;;;;;;;;;;;16.70;62.20;;;;;;5087899;28;19913;-70
2021/04/02 11:31:12;;;;;;;;;;;17.10;61.60;;;;;;5079535;28;20198;-70
2021/04/02 11:33:38;;;;;;;;;;;17.30;60.30;;;;;;5081708;28;20030;-70
2021/04/02 11:36:04;;;;;;;;;;;16.50;61.00;;;;;;5092408;28;20006;-68
2021/04/02 11:38:30;;;;;;;;;;;15.50;62.60;;;;;;5085894;28;19919;-69
2021/04/02 11:40:57;;;;;;;;;;;15.70;62.80;;;;;;5091700;28;19939;-70
2021/04/02 11:43:22;;;;;;;;;;;16.50;62.60;;;;;;5086206;28;20221;-70
2021/04/02 11:45:48;;;;;;;;;;;17.00;62.30;;;;;;5086365;28;19919;-70
2021/04/02 11:48:13;;;;;;;;;;;17.30;60.50;;;;;;5093834;28;20327;-70
2021/04/02 11:50:39;;;;;;;;;;;16.40;62.60;;;;;;5080660;28;19927;-70
2021/04/02 11:53:04;;;;;;;;;;;16.30;63.20;;;;;;5096684;28;19912;-70
2021/04/02 11:55:30;;;;;;;;;;;16.60;62.50;;;;;;5085991;28;19912;-70
2021/04/02 11:57:56;;;;;;;;;;;16.40;63.60;;;;;;5081972;28;19913;-70
2021/04/02 12:00:22;;;;;;;;;;;16.50;61.60;;;;;;5090527;28;20011;-70
2021/04/02 12:02:47;;;;;;;;;;;16.50;61.20;;;;;;5083114;28;19912;-70
2021/04/02 12:05:13;;;;;;;;;;;17.20;61.80;;;;;;5087001;28;19912;-70
2021/04/02 12:07:39;;;;;;;;;;;17.20;59.10;;;;;;5083681;28;19927;-70
2021/04/02 12:10:05;;;;;;;;;;;16.50;60.70;;;;;;5086921;28;19947;-71
2021/04/02 12:12:31;;;;;;;;;;;16.20;62.60;;;;;;5083676;28;19920;-70
2021/04/02 12:14:56;;;;;;;;;;;15.90;63.50;;;;;;5089269;28;19912;-70
2021/04/02 12:17:22;;;;;;;;;;;15.50;62.90;;;;;;5088046;28;19934;-70
2021/04/02 12:19:47;;;;;;;;;;;16.10;63.60;;;;;;5091857;28;19916;-70
2021/04/02 12:22:13;;;;;;;;;;;16.20;62.80;;;;;;5090427;28;19920;-69
2021/04/02 12:24:38;;;;;;;;;;;16.30;63.50;;;;;;5098032;28;19994;-70
2021/04/02 12:27:05;;;;;;;;;;;16.30;62.20;;;;;;5095507;28;19913;-70
2021/04/02 12:29:30;;;;;;;;;;;15.80;61.90;;;;;;5084368;28;20023;-69
2021/04/02 12:31:56;;;;;;;;;;;15.70;63.10;;;;;;5066795;28;20296;-70
2021/04/02 12:34:21;;;;;;;;;;;15.50;64.40;;;;;;5101805;28;20259;-70
2021/04/02 12:36:47;;;;;;;;;;;15.60;63.50;;;;;;5083386;28;19916;-70
2021/04/02 12:39:12;;;;;;;;;;;15.60;62.90;;;;;;5081220;28;19923;-70
2021/04/02 12:41:38;;;;;;;;;;;15.30;62.50;;;;;;5094805;28;19920;-70
2021/04/02 12:44:03;;;;;;;;;;;15.20;62.60;;;;;;5087186;28;19930;-70
2021/04/02 12:46:29;;;;;;;;;;;15.20;63.00;;;;;;5102608;28;19916;-70
2021/04/02 12:48:54;;;;;;;;;;;15.50;62.00;;;;;;5086640;28;19913;-71
2021/04/02 12:51:20;;;;;;;;;;;15.50;62.80;;;;;;5082401;28;19916;-71
2021/04/02 12:53:46;;;;;;;;;;;15.70;63.50;;;;;;5076098;28;19913;-71
2021/04/02 12:56:11;;;;;;;;;;;16.00;62.90;;;;;;5066576;28;20343;-70
2021/04/02 12:58:37;;;;;;;;;;;16.30;61.30;;;;;;5094425;28;19912;-69
2021/04/02 13:01:03;;;;;;;;;;;16.40;59.80;;;;;;5087965;28;19920;-69
2021/04/02 13:03:28;;;;;;;;;;;15.80;61.50;;;;;;5080142;28;20369;-70
2021/04/02 13:05:54;;;;;;;;;;;15.70;62.60;;;;;;5093376;28;20000;-70
2021/04/02 13:08:19;;;;;;;;;;;15.70;61.70;;;;;;5088899;28;20333;-70
2021/04/02 13:10:45;;;;;;;;;;;15.30;62.70;;;;;;5080066;28;19966;-71
2021/04/02 13:13:11;;;;;;;;;;;15.40;63.00;;;;;;5081315;28;19948;-70
2021/04/02 13:15:46;;;;;;;;;;;15.30;62.70;;;;;;5092452;27;19920;-70
2021/04/02 13:18:12;;;;;;;;;;;15.30;61.50;;;;;;5092909;28;19912;-70
2021/04/02 13:20:38;;;;;;;;;;;15.20;61.90;;;;;;5092342;28;19912;-70
2021/04/02 13:23:03;;;;;;;;;;;15.10;63.00;;;;;;5091442;28;19912;-69
2021/04/02 13:25:32;;;;;;;;;;;15.30;62.30;;;;;;5091390;28;19921;-69
2021/04/02 13:27:59;;;;;;;;;;;15.90;61.50;;;;;;5090674;28;19912;-69
2021/04/02 13:30:25;;;;;;;;;;;15.40;60.00;;;;;;5087709;28;19951;-68
2021/04/02 13:32:51;;;;;;;;;;;15.20;61.00;;;;;;5089673;28;19963;-69
2021/04/02 13:35:18;;;;;;;;;;;15.60;62.40;;;;;;5089132;28;19924;-70
2021/04/02 13:37:44;;;;;;;;;;;16.20;60.30;;;;;;5090598;28;19991;-70
2021/04/02 13:40:11;;;;;;;;;;;16.30;58.20;;;;;;5089754;28;19979;-70
2021/04/02 13:42:36;;;;;;;;;;;16.10;58.50;;;;;;5091969;28;19912;-69
2021/04/02 13:45:03;;;;;;;;;;;16.10;59.30;;;;;;5091893;28;20309;-70
2021/04/02 13:47:29;;;;;;;;;;;16.20;57.30;;;;;;5098069;28;19923;-69
2021/04/02 13:49:54;;;;;;;;;;;16.40;59.00;;;;;;5092769;28;19916;-70
2021/04/02 13:52:20;;;;;;;;;;;16.80;57.20;;;;;;5094795;28;19912;-70
2021/04/02 13:54:49;;;;;;;;;;;16.50;58.40;;;;;;5094285;28;19920;-70
2021/04/02 13:57:15;;;;;;;;;;;16.30;56.80;;;;;;5091711;28;20024;-70
2021/04/02 13:59:41;;;;;;;;;;;16.40;58.40;;;;;;5091337;28;21445;-70
2021/04/02 14:02:07;;;;;;;;;;;16.50;56.60;;;;;;5090244;28;19919;-70
2021/04/02 14:04:32;;;;;;;;;;;16.70;56.70;;;;;;5083094;28;19920;-69
2021/04/02 14:06:58;;;;;;;;;;;17.00;55.50;;;;;;5079433;28;20007;-68
2021/04/02 14:09:24;;;;;;;;;;;17.10;56.00;;;;;;5086030;28;19965;-67
2021/04/02 14:11:49;;;;;;;;;;;16.80;55.40;;;;;;5090155;28;19916;-68
2021/04/02 14:14:15;;;;;;;;;;;16.80;54.20;;;;;;5091460;28;20320;-68
2021/04/02 14:16:43;;;;;;;;;;;16.90;53.90;;;;;;5089101;28;20330;-69
2021/04/02 14:19:08;;;;;;;;;;;17.30;56.20;;;;;;5087446;28;19920;-68
2021/04/02 14:21:34;;;;;;;;;;;17.30;53.40;;;;;;5089151;28;19913;-69